Time;durP1;ratioP1;P1;durP2;ratioP2;P2;SDS_P1;SDS_P2;PMS_P1;PMS_P2;Temp;Humidity;BMP_temperature;BMP_pressure;BME280_temperature;BME280_humidity;BME280_pressure;Samples;Min_cycle;Max_cycle;Signal;HPM_P1;HPM_P2
2022/08/15 00:01:39;;;;;;;9.23;7.47;;;23.20;94.80;;;;;;4191678;28;20218;-78
2022/08/15 00:03:46;;;;;;;9.33;7.77;;;23.20;94.70;;;;;;4187449;28;20293;-77
2022/08/15 00:05:52;;;;;;;8.97;7.63;;;23.20;94.40;;;;;;4186037;28;20269;-79
2022/08/15 00:07:54;;;;;;;8.70;7.33;;;23.20;95.20;;;;;;4190296;28;20693;-78
2022/08/15 00:09:56;;;;;;;8.63;7.07;;;23.20;94.50;;;;;;4187352;28;20260;-77
2022/08/15 00:11:58;;;;;;;9.17;7.13;;;23.10;94.80;;;;;;4185407;28;20308;-77
2022/08/15 00:14:05;;;;;;;9.17;7.63;;;23.10;94.60;;;;;;4188939;28;20225;-77
2022/08/15 00:16:07;;;;;;;10.03;7.47;;;23.10;95.90;;;;;;4185718;28;20207;-79
2022/08/15 00:18:09;;;;;;;9.17;7.57;;;23.10;96.10;;;;;;4188852;28;20255;-79
2022/08/15 00:20:14;;;;;;;10.33;7.93;;;23.10;96.40;;;;;;4190196;28;20363;-79
2022/08/15 00:22:18;;;;;;;9.47;7.73;;;23.00;97.10;;;;;;4191505;28;20207;-78
2022/08/15 00:24:25;;;;;;;8.73;7.67;;;23.00;97.30;;;;;;4185812;28;20890;-77
2022/08/15 00:26:27;;;;;;;9.20;7.37;;;23.00;97.50;;;;;;4187891;28;20612;-78
2022/08/15 00:28:29;;;;;;;9.30;7.73;;;22.90;98.50;;;;;;4187529;28;20299;-78
2022/08/15 00:30:31;;;;;;;9.43;7.87;;;22.90;98.20;;;;;;4188761;28;20219;-79
2022/08/15 00:32:34;;;;;;;8.83;7.87;;;22.90;98.10;;;;;;4183269;28;20305;-79
2022/08/15 00:34:36;;;;;;;8.63;7.67;;;22.90;98.70;;;;;;4186257;28;20710;-78
2022/08/15 00:36:39;;;;;;;9.23;7.80;;;22.90;98.40;;;;;;4185081;28;20336;-77
2022/08/15 00:38:41;;;;;;;9.63;7.77;;;22.80;99.40;;;;;;4191116;28;20297;-77
2022/08/15 00:43:05;;;;;;;11.00;7.93;;;22.80;98.80;;;;;;4186583;28;20223;-77
2022/08/15 00:45:09;;;;;;;9.50;8.43;;;22.80;98.60;;;;;;4187927;28;20662;-78
2022/08/15 00:47:15;;;;;;;8.70;7.20;;;22.80;98.30;;;;;;4188823;28;20306;-78
2022/08/15 00:49:18;;;;;;;8.30;7.27;;;22.80;98.60;;;;;;4190411;28;20204;-78
2022/08/15 00:51:25;;;;;;;8.17;7.23;;;22.80;99.10;;;;;;4188036;28;20211;-78
2022/08/15 00:53:28;;;;;;;8.97;7.67;;;22.70;98.70;;;;;;4186248;28;20724;-78
2022/08/15 00:55:32;;;;;;;8.23;7.37;;;22.70;99.10;;;;;;4187023;28;20202;-78
2022/08/15 00:57:37;;;;;;;8.50;7.60;;;22.70;98.80;;;;;;4187330;28;20692;-77
2022/08/15 00:59:43;;;;;;;8.27;7.37;;;22.70;99.10;;;;;;4187746;28;20213;-78
2022/08/15 01:01:46;;;;;;;9.10;7.23;;;22.60;99.40;;;;;;4190105;28;20230;-77
2022/08/15 01:03:49;;;;;;;10.77;7.90;;;22.60;98.90;;;;;;4189128;28;20596;-77
2022/08/15 01:05:54;;;;;;;8.17;7.20;;;22.60;99.60;;;;;;4183813;28;20214;-78
2022/08/15 01:07:56;;;;;;;8.67;7.57;;;22.60;99.70;;;;;;4184014;28;20204;-77
2022/08/15 01:10:00;;;;;;;9.63;8.07;;;22.60;99.90;;;;;;4190074;28;20637;-78
2022/08/15 01:12:07;;;;;;;9.27;7.60;;;22.60;99.90;;;;;;4193328;28;20217;-77
2022/08/15 01:14:10;;;;;;;8.90;7.67;;;22.50;99.90;;;;;;4188001;28;20348;-78
2022/08/15 01:16:13;;;;;;;9.20;8.17;;;22.50;99.90;;;;;;4183723;28;20211;-78
2022/08/15 01:18:15;;;;;;;9.20;7.70;;;22.50;99.90;;;;;;4180950;28;20233;-77
2022/08/15 01:20:23;;;;;;;8.50;7.30;;;22.50;99.90;;;;;;4181017;28;20201;-78
2022/08/15 01:22:43;;;;;;;9.90;8.37;;;22.30;99.90;;;;;;4187792;28;20581;-79
2022/08/15 01:24:58;;;;;;;8.43;7.53;;;22.40;99.90;;;;;;4186398;28;20212;-79
2022/08/15 01:27:00;;;;;;;9.70;8.13;;;22.40;99.90;;;;;;4186734;28;20706;-77
2022/08/15 01:29:02;;;;;;;10.07;8.30;;;22.30;99.90;;;;;;4192647;28;20210;-78
2022/08/15 01:31:09;;;;;;;9.37;8.20;;;22.30;99.90;;;;;;4186696;28;20210;-77
2022/08/15 01:33:13;;;;;;;9.63;7.43;;;22.30;99.90;;;;;;4188722;28;20247;-76
2022/08/15 01:35:19;;;;;;;10.23;8.40;;;22.30;99.90;;;;;;4183743;28;20239;-78
2022/08/15 01:37:22;;;;;;;9.53;7.60;;;22.20;99.90;;;;;;4189953;28;20256;-77
2022/08/15 01:39:37;;;;;;;9.73;8.10;;;22.20;99.90;;;;;;4187573;28;20285;-78
2022/08/15 01:41:44;;;;;;;9.77;8.13;;;22.20;99.90;;;;;;4189696;28;20230;-78
2022/08/15 01:43:52;;;;;;;8.87;7.97;;;22.20;99.90;;;;;;4185238;28;20226;-78
2022/08/15 01:45:58;;;;;;;8.77;7.57;;;22.10;99.90;;;;;;4190086;28;20225;-78
2022/08/15 01:48:07;;;;;;;9.60;7.70;;;22.10;99.90;;;;;;4184372;28;20264;-77
2022/08/15 01:50:12;;;;;;;8.90;7.70;;;22.10;99.90;;;;;;4183864;28;20231;-77
2022/08/15 01:52:16;;;;;;;10.10;8.33;;;22.10;99.90;;;;;;4183799;28;20206;-78
2022/08/15 01:54:20;;;;;;;10.47;8.07;;;22.10;99.90;;;;;;4186170;28;20682;-78
2022/08/15 01:56:26;;;;;;;9.40;8.00;;;22.00;99.90;;;;;;4183896;28;20213;-78
2022/08/15 01:58:30;;;;;;;9.60;7.70;;;22.00;99.90;;;;;;4190208;28;20202;-77
2022/08/15 02:00:33;;;;;;;10.63;8.47;;;22.00;99.90;;;;;;4186363;28;20229;-78
2022/08/15 02:02:35;;;;;;;11.57;7.70;;;22.00;99.90;;;;;;4188277;28;20244;-77
2022/08/15 02:04:41;;;;;;;8.43;7.23;;;21.90;99.90;;;;;;4186102;28;20755;-77
2022/08/15 02:06:44;;;;;;;10.00;8.33;;;21.90;99.90;;;;;;4192986;28;20675;-78
2022/08/15 02:08:46;;;;;;;9.97;8.33;;;21.90;99.90;;;;;;4185524;28;20213;-77
2022/08/15 02:10:48;;;;;;;7.87;7.07;;;21.90;99.90;;;;;;4180383;28;20205;-77
2022/08/15 02:12:49;;;;;;;9.50;8.00;;;21.90;99.90;;;;;;4186645;28;20273;-77
2022/08/15 02:14:53;;;;;;;9.70;7.80;;;21.80;99.90;;;;;;4188991;28;20211;-77
2022/08/15 02:16:55;;;;;;;9.30;7.83;;;21.80;99.90;;;;;;4188975;28;20647;-78
2022/08/15 02:18:57;;;;;;;9.33;7.53;;;21.80;99.90;;;;;;4188765;28;20983;-78
2022/08/15 02:20:59;;;;;;;9.60;7.90;;;21.80;99.90;;;;;;4184732;28;20233;-78
2022/08/15 02:23:01;;;;;;;8.47;7.57;;;21.80;99.90;;;;;;4193883;28;20569;-78
2022/08/15 02:25:06;;;;;;;9.30;8.07;;;21.70;99.90;;;;;;4182797;28;20217;-78
2022/08/15 02:27:08;;;;;;;9.40;7.90;;;21.70;99.90;;;;;;4179746;28;20308;-78
2022/08/15 02:29:11;;;;;;;8.57;7.60;;;21.70;99.90;;;;;;4187827;28;20206;-77
2022/08/15 02:31:28;;;;;;;9.63;7.70;;;21.70;99.90;;;;;;4185405;28;20209;-78
2022/08/15 02:33:30;;;;;;;9.93;7.93;;;21.70;99.90;;;;;;4182158;28;20222;-79
2022/08/15 02:35:32;;;;;;;9.57;8.17;;;21.70;99.90;;;;;;4187847;28;20205;-79
2022/08/15 02:37:34;;;;;;;10.90;7.93;;;21.60;99.90;;;;;;4187151;28;20213;-78
2022/08/15 02:39:36;;;;;;;8.80;7.73;;;21.60;99.90;;;;;;4186888;28;20205;-78
2022/08/15 02:41:40;;;;;;;10.63;8.20;;;21.60;99.90;;;;;;4186617;28;20226;-79
2022/08/15 02:43:44;;;;;;;9.33;7.97;;;21.60;99.90;;;;;;4185580;28;20649;-78
2022/08/15 02:45:47;;;;;;;8.93;7.73;;;21.50;99.90;;;;;;4184513;28;20205;-77
2022/08/15 02:47:51;;;;;;;11.03;8.17;;;21.60;99.90;;;;;;4192473;28;20545;-77
2022/08/15 02:49:53;;;;;;;9.63;7.87;;;21.60;99.90;;;;;;4188913;28;20213;-78
2022/08/15 02:51:56;;;;;;;8.63;7.33;;;21.60;99.90;;;;;;4187329;28;20220;-78
2022/08/15 02:53:58;;;;;;;8.27;7.47;;;21.60;99.90;;;;;;4184562;28;20279;-77
2022/08/15 02:55:59;;;;;;;10.70;8.07;;;21.50;99.90;;;;;;4185248;28;20206;-78
2022/08/15 02:58:01;;;;;;;8.53;7.47;;;21.50;99.90;;;;;;4185800;28;20318;-77
2022/08/15 03:00:06;;;;;;;11.37;7.37;;;21.50;99.90;;;;;;4182278;28;20270;-78
2022/08/15 03:02:08;;;;;;;9.63;8.00;;;21.50;99.90;;;;;;4184412;28;20699;-79
2022/08/15 03:04:15;;;;;;;9.90;8.27;;;21.40;99.90;;;;;;4185081;28;20230;-78
2022/08/15 03:06:20;;;;;;;9.03;7.87;;;21.40;99.90;;;;;;4182621;28;20221;-77
2022/08/15 03:08:23;;;;;;;9.40;8.07;;;21.40;99.90;;;;;;4194183;28;20255;-77
2022/08/15 03:10:25;;;;;;;9.53;7.50;;;21.40;99.90;;;;;;4185174;28;20248;-77
2022/08/15 03:12:27;;;;;;;9.07;7.50;;;21.40;99.90;;;;;;4186737;28;20205;-78
2022/08/15 03:14:29;;;;;;;9.00;7.60;;;21.40;99.90;;;;;;4187973;28;20348;-77
2022/08/15 03:16:31;;;;;;;8.67;7.53;;;21.40;99.90;;;;;;4186770;28;20215;-78
2022/08/15 03:18:36;;;;;;;10.73;8.47;;;21.30;99.90;;;;;;4186642;28;20567;-77
2022/08/15 03:20:40;;;;;;;10.13;8.40;;;21.30;99.90;;;;;;4186175;28;20236;-77
2022/08/15 03:22:44;;;;;;;8.80;7.40;;;21.30;99.90;;;;;;4184004;28;20222;-77
2022/08/15 03:24:46;;;;;;;8.97;7.63;;;21.30;99.90;;;;;;4185735;28;20304;-77
2022/08/15 03:26:48;;;;;;;8.87;7.07;;;21.30;99.90;;;;;;4186328;28;20734;-78
2022/08/15 03:28:50;;;;;;;9.47;7.63;;;21.30;99.90;;;;;;4195356;28;20615;-78
2022/08/15 03:30:54;;;;;;;9.10;7.60;;;21.30;99.90;;;;;;4179319;28;20245;-79
2022/08/15 03:32:58;;;;;;;8.97;7.70;;;21.30;99.90;;;;;;4183835;28;20204;-79
2022/08/15 03:35:02;;;;;;;10.00;8.07;;;21.30;99.90;;;;;;4191743;28;20206;-77
2022/08/15 03:37:05;;;;;;;9.10;7.70;;;21.30;99.90;;;;;;4182888;28;20241;-78
2022/08/15 03:39:07;;;;;;;10.27;7.50;;;21.30;99.90;;;;;;4182855;28;20232;-77
2022/08/15 03:41:10;;;;;;;11.70;8.43;;;21.30;99.90;;;;;;4187079;28;20211;-78
2022/08/15 03:43:15;;;;;;;8.53;7.47;;;21.30;99.90;;;;;;4188906;28;20263;-79
2022/08/15 03:45:17;;;;;;;10.43;7.27;;;21.30;99.90;;;;;;4190234;28;20574;-78
2022/08/15 03:47:21;;;;;;;9.83;7.97;;;21.30;99.90;;;;;;4189021;28;20627;-78
2022/08/15 03:49:23;;;;;;;10.80;7.67;;;21.30;99.90;;;;;;4186723;28;20241;-78
2022/08/15 03:51:27;;;;;;;9.57;7.73;;;21.30;99.90;;;;;;4191967;28;20201;-78
2022/08/15 03:53:33;;;;;;;9.03;7.70;;;21.30;99.90;;;;;;4184423;28;20292;-78
2022/08/15 03:55:38;;;;;;;8.47;7.43;;;21.30;99.90;;;;;;4186613;28;20778;-78
2022/08/15 03:57:40;;;;;;;9.83;7.13;;;21.30;99.90;;;;;;4189590;28;20240;-78
2022/08/15 03:59:42;;;;;;;10.67;7.83;;;21.30;99.90;;;;;;4192434;28;20206;-77
2022/08/15 04:01:44;;;;;;;9.03;7.83;;;21.30;99.90;;;;;;4188398;28;20229;-78
2022/08/15 04:03:47;;;;;;;10.53;7.53;;;21.30;99.90;;;;;;4189897;28;20312;-78
2022/08/15 04:05:51;;;;;;;9.67;8.03;;;21.30;99.90;;;;;;4184624;28;20203;-79
2022/08/15 04:07:53;;;;;;;9.03;7.60;;;21.30;99.90;;;;;;4190002;28;20243;-78
2022/08/15 04:09:57;;;;;;;9.73;7.30;;;21.40;99.90;;;;;;4189064;28;20205;-79
2022/08/15 04:11:59;;;;;;;9.30;7.97;;;21.40;99.90;;;;;;4182010;28;20215;-78
2022/08/15 04:14:01;;;;;;;9.07;7.30;;;21.40;99.90;;;;;;4188991;28;20240;-78
2022/08/15 04:16:06;;;;;;;9.73;7.87;;;21.30;99.90;;;;;;4194609;28;20628;-78
2022/08/15 04:18:09;;;;;;;10.03;7.87;;;21.40;99.90;;;;;;4190154;28;20233;-78
2022/08/15 04:20:12;;;;;;;8.57;7.43;;;21.40;99.90;;;;;;4195845;28;20703;-79
2022/08/15 04:22:14;;;;;;;8.73;7.73;;;21.40;99.90;;;;;;4193684;28;20224;-79
2022/08/15 04:24:16;;;;;;;10.17;7.63;;;21.40;99.90;;;;;;4187296;28;20261;-79
2022/08/15 04:26:19;;;;;;;9.33;7.50;;;21.40;99.90;;;;;;4188271;28;20214;-78
2022/08/15 04:28:23;;;;;;;8.33;7.20;;;21.40;99.90;;;;;;4189841;28;20262;-78
2022/08/15 04:30:27;;;;;;;9.83;8.07;;;21.40;99.90;;;;;;4189875;28;20203;-76
2022/08/15 04:32:29;;;;;;;10.87;7.53;;;21.40;99.90;;;;;;4182598;28;20263;-77
2022/08/15 04:34:31;;;;;;;9.07;7.47;;;21.40;99.90;;;;;;4188763;28;20668;-77
2022/08/15 04:36:34;;;;;;;10.13;7.80;;;21.40;99.90;;;;;;4181475;28;20241;-77
2022/08/15 04:38:36;;;;;;;12.23;8.23;;;21.40;99.90;;;;;;4186534;28;20210;-79
2022/08/15 04:40:38;;;;;;;9.67;7.87;;;21.50;99.90;;;;;;4187175;28;20221;-79
2022/08/15 04:42:51;;;;;;;11.20;8.50;;;21.50;99.90;;;;;;4187455;28;20259;-78
2022/08/15 04:44:53;;;;;;;10.83;8.53;;;21.50;99.90;;;;;;4188667;28;20616;-77
2022/08/15 04:46:56;;;;;;;10.20;8.80;;;21.50;99.90;;;;;;4189476;28;20668;-77
2022/08/15 04:48:58;;;;;;;9.83;8.30;;;21.50;99.90;;;;;;4186164;28;20297;-79
2022/08/15 04:51:02;;;;;;;11.00;8.87;;;21.50;99.90;;;;;;4188739;28;20801;-76
2022/08/15 04:53:07;;;;;;;10.47;8.33;;;21.50;99.90;;;;;;4191270;28;20619;-78
2022/08/15 04:55:09;;;;;;;9.93;8.27;;;21.50;99.90;;;;;;4187401;28;20259;-78
2022/08/15 04:57:12;;;;;;;10.67;8.57;;;21.50;99.90;;;;;;4185499;28;20205;-78
2022/08/15 04:59:15;;;;;;;11.07;8.17;;;21.50;99.90;;;;;;4187081;28;20209;-78
2022/08/15 05:01:18;;;;;;;9.37;8.23;;;21.50;99.90;;;;;;4183624;28;20620;-78
2022/08/15 05:03:21;;;;;;;10.70;8.43;;;21.50;99.90;;;;;;4187397;28;20231;-77
2022/08/15 05:05:24;;;;;;;10.57;8.53;;;21.50;99.90;;;;;;4186572;28;20213;-78
2022/08/15 05:07:25;;;;;;;10.77;8.23;;;21.50;99.90;;;;;;4188769;28;20280;-77
2022/08/15 05:09:27;;;;;;;8.97;7.57;;;21.60;99.90;;;;;;4187319;28;20212;-77
2022/08/15 05:11:31;;;;;;;8.97;7.53;;;21.60;99.90;;;;;;4188135;28;20206;-78
2022/08/15 05:13:37;;;;;;;9.37;7.70;;;21.60;99.90;;;;;;4186878;28;20262;-78
2022/08/15 05:15:41;;;;;;;8.57;7.13;;;21.60;99.90;;;;;;4185766;28;20310;-77
2022/08/15 05:17:45;;;;;;;8.80;7.60;;;21.60;99.90;;;;;;4181935;28;20242;-79
2022/08/15 05:19:47;;;;;;;8.00;7.07;;;21.60;99.90;;;;;;4190590;28;20202;-79
2022/08/15 05:21:49;;;;;;;10.43;6.93;;;21.70;99.90;;;;;;4191192;28;20207;-79
2022/08/15 05:23:51;;;;;;;9.33;7.17;;;21.70;99.90;;;;;;4191009;28;20230;-79
2022/08/15 05:25:55;;;;;;;8.50;7.10;;;21.70;99.90;;;;;;4189986;28;20209;-78
2022/08/15 05:27:57;;;;;;;9.10;6.97;;;21.80;99.90;;;;;;4190815;28;20231;-79
2022/08/15 05:29:59;;;;;;;9.30;7.10;;;21.80;99.90;;;;;;4191128;28;20654;-79
2022/08/15 05:32:07;;;;;;;7.67;6.60;;;21.80;99.90;;;;;;4191362;28;20244;-79
2022/08/15 05:34:09;;;;;;;8.67;6.87;;;21.80;99.90;;;;;;4190874;28;20282;-79
2022/08/15 05:36:13;;;;;;;8.93;6.60;;;21.90;99.90;;;;;;4193820;28;20697;-78
2022/08/15 05:38:18;;;;;;;7.73;6.80;;;21.90;99.90;;;;;;4187225;28;20652;-79
2022/08/15 05:40:20;;;;;;;7.23;6.03;;;22.00;99.90;;;;;;4187395;28;20214;-78
2022/08/15 05:42:34;;;;;;;6.93;6.03;;;22.00;99.90;;;;;;4188356;28;20226;-78
2022/08/15 05:44:41;;;;;;;7.37;6.00;;;22.00;99.90;;;;;;4186535;28;20252;-79
2022/08/15 05:46:46;;;;;;;8.93;6.60;;;22.10;99.90;;;;;;4186570;28;20238;-79
2022/08/15 05:49:02;;;;;;;7.87;6.27;;;22.10;99.90;;;;;;4192565;28;20238;-80
2022/08/15 05:51:12;;;;;;;7.83;6.10;;;22.20;99.90;;;;;;4190301;28;20221;-79
2022/08/15 05:53:26;;;;;;;6.60;5.80;;;22.20;99.90;;;;;;4191310;28;20330;-78
2022/08/15 05:55:40;;;;;;;6.83;6.00;;;22.30;99.90;;;;;;4185155;28;20687;-80
2022/08/15 05:58:11;;;;;;;8.07;6.23;;;22.30;99.90;;;;;;4188274;28;20203;-79
2022/08/15 06:00:15;;;;;;;7.00;5.77;;;22.30;99.90;;;;;;4182399;28;20223;-80
2022/08/15 06:02:22;;;;;;;7.47;6.17;;;22.40;99.90;;;;;;4188608;28;20322;-79
2022/08/15 06:04:37;;;;;;;7.53;6.13;;;22.40;99.90;;;;;;4191973;28;20234;-79
2022/08/15 06:06:43;;;;;;;8.47;6.20;;;22.50;99.90;;;;;;4189252;28;20199;-79
2022/08/15 06:08:51;;;;;;;7.70;5.40;;;22.50;99.90;;;;;;4190158;28;20212;-80
2022/08/15 06:10:55;;;;;;;7.43;6.00;;;22.50;99.90;;;;;;4186386;28;20206;-79
2022/08/15 06:13:03;;;;;;;8.20;6.67;;;22.60;99.90;;;;;;4191248;28;20266;-79
2022/08/15 06:15:20;;;;;;;8.70;6.83;;;22.70;99.90;;;;;;4191714;28;20204;-79
2022/08/15 06:17:28;;;;;;;7.90;6.87;;;22.70;99.90;;;;;;4191719;28;20689;-80
2022/08/15 06:19:35;;;;;;;8.70;6.50;;;22.80;99.90;;;;;;4190081;28;20654;-79
2022/08/15 06:21:47;;;;;;;7.37;5.90;;;22.80;99.90;;;;;;4188143;28;20934;-79
2022/08/15 06:23:57;;;;;;;7.37;6.40;;;22.90;99.90;;;;;;4186696;28;20228;-79
2022/08/15 06:26:06;;;;;;;7.43;6.00;;;22.90;99.90;;;;;;4185667;28;20209;-79
2022/08/15 06:28:36;;;;;;;7.47;6.07;;;23.00;99.90;;;;;;4185077;28;20282;-80
2022/08/15 06:30:43;;;;;;;7.00;6.00;;;23.00;99.90;;;;;;4191242;28;20666;-79
2022/08/15 06:32:55;;;;;;;7.97;5.80;;;23.10;99.90;;;;;;4184145;28;20211;-80
2022/08/15 06:35:11;;;;;;;8.10;5.97;;;23.10;99.90;;;;;;4192998;28;20236;-80
2022/08/15 06:37:21;;;;;;;7.30;5.90;;;23.20;99.90;;;;;;4194582;28;20245;-79
2022/08/15 06:39:30;;;;;;;6.37;5.47;;;23.20;99.90;;;;;;4190621;28;20240;-79
2022/08/15 06:41:38;;;;;;;6.80;5.70;;;23.30;99.90;;;;;;4196221;28;20288;-79
2022/08/15 06:43:41;;;;;;;6.83;5.90;;;23.30;99.90;;;;;;4194606;28;20222;-78
2022/08/15 06:45:46;;;;;;;7.43;5.80;;;23.40;99.90;;;;;;4186586;28;20260;-79
2022/08/15 06:47:52;;;;;;;6.63;5.40;;;23.50;99.90;;;;;;4189389;28;20197;-80
2022/08/15 06:49:59;;;;;;;8.97;5.93;;;23.50;99.90;;;;;;4184616;28;20205;-79
2022/08/15 06:52:02;;;;;;;6.33;5.63;;;23.60;99.90;;;;;;4187204;28;20221;-80
2022/08/15 06:54:06;;;;;;;10.30;6.00;;;23.60;99.90;;;;;;4185090;28;20336;-78
2022/08/15 06:56:18;;;;;;;7.47;5.93;;;23.70;99.90;;;;;;4187467;28;20241;-79
2022/08/15 06:58:26;;;;;;;7.70;5.30;;;23.70;99.90;;;;;;4186013;28;20213;-80
2022/08/15 07:00:36;;;;;;;6.77;5.73;;;23.80;99.90;;;;;;4189192;28;20294;-80
2022/08/15 07:02:51;;;;;;;7.50;6.00;;;23.90;99.90;;;;;;4194282;28;20222;-80
2022/08/15 07:05:04;;;;;;;7.20;5.93;;;23.90;99.90;;;;;;4192721;28;20224;-76
2022/08/15 07:07:12;;;;;;;8.03;6.07;;;24.00;99.90;;;;;;4188904;28;20296;-80
2022/08/15 07:09:35;;;;;;;7.00;6.13;;;24.10;99.90;;;;;;4182393;28;20210;-80
2022/08/15 07:11:43;;;;;;;7.23;5.97;;;24.10;99.90;;;;;;4191812;28;20266;-80
2022/08/15 07:13:54;;;;;;;6.87;5.87;;;24.10;99.90;;;;;;4191370;28;20240;-80
2022/08/15 07:15:59;;;;;;;7.37;5.90;;;24.20;99.90;;;;;;4192947;28;20233;-79
2022/08/15 07:18:06;;;;;;;7.57;6.10;;;24.30;99.90;;;;;;4194201;28;20242;-79
2022/08/15 07:20:10;;;;;;;7.13;6.20;;;24.30;99.80;;;;;;4193136;28;20202;-80
2022/08/15 07:22:12;;;;;;;8.87;5.90;;;24.30;99.60;;;;;;4194033;28;20260;-80
2022/08/15 07:24:25;;;;;;;8.43;6.00;;;24.40;99.20;;;;;;4194101;28;20969;-80
2022/08/15 07:26:30;;;;;;;7.47;6.13;;;24.40;99.10;;;;;;4190184;28;20236;-80
2022/08/15 07:28:35;;;;;;;8.17;6.73;;;24.50;98.80;;;;;;4186169;28;20202;-80
2022/08/15 07:30:45;;;;;;;9.43;6.77;;;24.50;98.50;;;;;;4189662;28;20226;-80
2022/08/15 07:32:50;;;;;;;9.07;6.57;;;24.50;98.30;;;;;;4188862;28;20267;-83
2022/08/15 07:34:59;;;;;;;8.50;6.77;;;24.50;98.10;;;;;;4185695;28;20202;-76
2022/08/15 07:37:06;;;;;;;7.67;6.07;;;24.50;97.90;;;;;;4184914;28;20297;-73
2022/08/15 07:39:25;;;;;;;9.83;7.13;;;24.60;98.10;;;;;;4181572;28;20218;-74
2022/08/15 07:41:29;;;;;;;8.97;6.83;;;24.60;98.00;;;;;;4182557;28;20259;-74
2022/08/15 07:43:35;;;;;;;9.03;6.77;;;24.60;98.80;;;;;;4187657;28;20388;-76
2022/08/15 07:45:39;;;;;;;9.83;7.20;;;24.70;99.90;;;;;;4185619;28;20206;-76
2022/08/15 07:47:55;;;;;;;10.53;7.87;;;24.70;99.90;;;;;;4184876;28;20229;-76
2022/08/15 07:50:02;;;;;;;11.20;8.90;;;24.60;99.90;;;;;;4185246;28;20198;-75
2022/08/15 07:52:17;;;;;;;10.40;8.67;;;24.50;99.90;;;;;;4185241;28;20209;-77
2022/08/15 07:54:26;;;;;;;11.77;9.10;;;24.40;99.90;;;;;;4187135;28;20304;-76
2022/08/15 07:56:30;;;;;;;11.73;8.80;;;24.30;99.90;;;;;;4186229;28;20240;-77
2022/08/15 07:58:33;;;;;;;11.17;9.40;;;24.30;99.90;;;;;;4184197;28;20663;-77
2022/08/15 08:00:36;;;;;;;12.50;9.50;;;24.30;99.90;;;;;;4185983;28;20302;-77
2022/08/15 08:02:42;;;;;;;10.77;9.03;;;24.30;99.90;;;;;;4184165;28;20549;-76
2022/08/15 08:04:44;;;;;;;11.57;9.37;;;24.40;99.90;;;;;;4181447;28;20755;-78
2022/08/15 08:06:52;;;;;;;11.37;9.07;;;24.40;99.90;;;;;;4203134;28;20201;-81
2022/08/15 08:09:07;;;;;;;11.87;9.03;;;24.50;99.90;;;;;;4181692;28;20259;-78
2022/08/15 08:11:19;;;;;;;13.13;9.77;;;24.50;99.90;;;;;;4194649;28;20297;-76
2022/08/15 08:13:39;;;;;;;11.27;9.10;;;24.60;99.90;;;;;;4190725;28;20218;-78
2022/08/15 08:15:49;;;;;;;13.93;8.77;;;24.60;99.90;;;;;;4187804;28;20905;-77
2022/08/15 08:17:59;;;;;;;11.00;9.23;;;24.70;99.90;;;;;;4179893;28;20993;-76
2022/08/15 08:20:11;;;;;;;9.83;8.47;;;24.80;99.90;;;;;;4190813;28;20214;-76
2022/08/15 08:22:23;;;;;;;10.77;9.13;;;24.90;99.90;;;;;;4184600;28;20297;-76
2022/08/15 08:24:33;;;;;;;11.00;8.73;;;24.90;99.90;;;;;;4185367;28;20721;-77
2022/08/15 08:26:45;;;;;;;10.43;8.47;;;25.00;99.90;;;;;;4186439;28;20197;-76
2022/08/15 08:28:57;;;;;;;10.50;8.00;;;25.00;99.90;;;;;;4187687;28;20198;-75
2022/08/15 08:31:05;;;;;;;9.97;8.43;;;25.10;99.90;;;;;;4184182;28;20550;-76
2022/08/15 08:33:17;;;;;;;9.97;8.23;;;25.10;99.90;;;;;;4184702;28;20207;-75
2022/08/15 08:35:34;;;;;;;9.87;8.00;;;25.20;99.90;;;;;;4183602;28;20661;-75
2022/08/15 08:37:42;;;;;;;9.93;8.20;;;25.20;99.90;;;;;;4185396;28;20208;-75
2022/08/15 08:39:53;;;;;;;10.63;7.73;;;25.30;99.90;;;;;;4185694;28;20213;-77
2022/08/15 08:42:02;;;;;;;9.57;8.00;;;25.30;99.90;;;;;;4187913;28;20241;-77
2022/08/15 08:44:17;;;;;;;8.60;7.50;;;25.40;99.90;;;;;;4187523;28;20296;-76
2022/08/15 08:46:38;;;;;;;9.10;7.60;;;25.40;99.90;;;;;;4186362;28;20215;-74
2022/08/15 08:48:51;;;;;;;9.33;7.63;;;25.40;99.90;;;;;;4188959;28;20651;-76
2022/08/15 08:51:00;;;;;;;9.53;8.07;;;25.50;99.90;;;;;;4185978;28;20202;-75
2022/08/15 08:53:14;;;;;;;11.20;8.10;;;25.50;99.90;;;;;;4185224;28;20551;-77
2022/08/15 08:55:23;;;;;;;11.00;7.37;;;25.60;99.90;;;;;;4185903;28;20244;-75
2022/08/15 08:57:30;;;;;;;8.40;7.20;;;25.60;99.90;;;;;;4186963;28;20233;-74
2022/08/15 08:59:37;;;;;;;8.30;7.40;;;25.70;99.90;;;;;;4185061;28;20232;-75
2022/08/15 09:01:40;;;;;;;10.80;7.90;;;25.70;99.90;;;;;;4181768;28;20201;-75
2022/08/15 09:03:46;;;;;;;8.87;7.93;;;25.80;99.90;;;;;;4183939;28;20214;-76
2022/08/15 09:05:51;;;;;;;9.37;7.60;;;25.90;99.90;;;;;;4185493;28;20206;-76
2022/08/15 09:07:56;;;;;;;9.87;7.47;;;26.00;99.90;;;;;;4185068;28;20203;-75
2022/08/15 09:10:01;;;;;;;8.57;7.03;;;26.00;99.90;;;;;;4185714;28;20237;-76
2022/08/15 09:14:35;;;;;;;9.93;6.70;;;26.10;99.90;;;;;;4182280;28;20234;-76
2022/08/15 09:16:40;;;;;;;8.63;7.00;;;26.20;99.90;;;;;;4193390;28;20226;-75
2022/08/15 09:18:48;;;;;;;7.43;6.70;;;26.30;99.90;;;;;;4187876;28;20206;-74
2022/08/15 09:25:06;;;;;;;9.40;7.40;;;26.50;99.90;;;;;;4182065;28;20253;-80
2022/08/15 09:27:17;;;;;;;8.40;7.50;;;26.60;99.90;;;;;;4165163;28;20310;-79
2022/08/15 09:29:26;;;;;;;8.77;7.27;;;26.70;99.90;;;;;;4157511;28;20215;-78
2022/08/15 09:31:33;;;;;;;8.07;6.80;;;26.80;99.90;;;;;;4177694;28;20230;-77
2022/08/15 09:34:05;;;;;;;8.87;7.27;;;27.00;99.90;;;;;;4161961;28;20742;-77
2022/08/15 09:36:37;;;;;;;8.60;7.20;;;27.10;99.90;;;;;;4166902;22;20434;-75
2022/08/15 09:38:54;;;;;;;7.90;7.03;;;27.30;99.90;;;;;;4141770;28;20207;-75
2022/08/15 09:41:20;;;;;;;8.80;6.93;;;27.50;91.90;;;;;;4136969;28;20491;-76
2022/08/15 09:43:42;;;;;;;8.00;7.20;;;27.70;89.70;;;;;;4168448;28;21230;-76
2022/08/15 09:46:13;;;;;;;7.73;6.60;;;27.90;90.30;;;;;;4166843;28;20234;-76
2022/08/15 09:48:46;;;;;;;8.13;7.10;;;28.00;84.80;;;;;;4167620;28;20214;-77
2022/08/15 09:51:07;;;;;;;7.83;7.03;;;28.20;92.20;;;;;;4163519;28;20302;-76
2022/08/15 09:53:25;;;;;;;7.55;6.75;;;28.30;94.90;;;;;;4166953;28;20207;-77
2022/08/15 09:55:43;;;;;;;7.60;6.80;;;28.40;80.00;;;;;;4171706;28;20238;-77
2022/08/15 09:57:51;;;;;;;8.63;7.07;;;28.50;61.60;;;;;;4172450;28;20206;-76
2022/08/15 09:59:58;;;;;;;9.93;7.47;;;28.60;77.70;;;;;;4172445;28;20209;-76
2022/08/15 10:02:20;;;;;;;8.57;7.22;;;28.70;68.60;;;;;;4176611;28;20282;-76
2022/08/15 10:04:39;;;;;;;9.00;7.50;;;28.80;78.20;;;;;;4175973;28;20218;-75
2022/08/15 10:07:06;;;;;;;7.78;6.78;;;28.90;61.70;;;;;;4168819;28;20231;-75
2022/08/15 10:09:17;;;;;;;7.70;6.85;;;29.00;64.50;;;;;;4145346;28;20257;-76
2022/08/15 10:11:27;;;;;;;8.55;6.78;;;29.10;65.70;;;;;;4140232;28;20219;-74
2022/08/15 10:13:45;;;;;;;7.82;6.93;;;29.20;66.80;;;;;;4169951;28;20298;-81
2022/08/15 10:15:50;;;;;;;8.38;6.40;;;29.30;65.00;;;;;;4168319;28;20227;-77
2022/08/15 10:17:52;;;;;;;7.95;7.00;;;29.50;73.10;;;;;;4150085;28;20206;-76
2022/08/15 10:19:56;;;;;;;7.85;6.95;;;29.50;73.70;;;;;;4169647;28;20237;-77
2022/08/15 10:22:00;;;;;;;8.93;6.70;;;29.60;71.90;;;;;;4151776;28;20204;-79
2022/08/15 10:24:07;;;;;;;7.80;6.78;;;29.70;69.90;;;;;;4164809;28;20306;-76
2022/08/15 10:26:22;;;;;;;7.55;6.32;;;29.80;61.80;;;;;;4167889;28;20271;-75
2022/08/15 10:28:25;;;;;;;8.88;6.90;;;29.80;56.40;;;;;;4170622;28;20535;-77
2022/08/15 10:30:31;;;;;;;8.20;6.30;;;29.80;53.60;;;;;;4167338;28;20234;-79
2022/08/15 10:32:41;;;;;;;9.63;6.60;;;29.90;53.80;;;;;;4164410;28;20218;-78
2022/08/15 10:34:56;;;;;;;7.65;6.85;;;29.90;51.90;;;;;;4164292;28;20206;-77
2022/08/15 10:37:09;;;;;;;7.88;7.07;;;29.90;50.60;;;;;;4166843;28;20758;-79
2022/08/15 10:39:28;;;;;;;7.32;6.63;;;29.90;49.80;;;;;;4163640;28;20298;-79
2022/08/15 10:41:40;;;;;;;8.30;7.32;;;29.90;46.30;;;;;;4164151;28;20226;-77
2022/08/15 10:43:55;;;;;;;8.05;7.05;;;29.90;49.40;;;;;;4164368;28;20203;-77
2022/08/15 10:46:00;;;;;;;7.85;6.55;;;29.90;52.00;;;;;;4148835;28;20233;-78
2022/08/15 10:48:15;;;;;;;7.10;6.35;;;29.90;54.30;;;;;;4168176;28;20213;-77
2022/08/15 10:50:23;;;;;;;7.18;6.40;;;29.90;54.20;;;;;;4168358;28;20238;-82
2022/08/15 10:52:38;;;;;;;7.03;6.05;;;30.00;55.30;;;;;;4173344;28;20230;-80
2022/08/15 10:55:08;;;;;;;7.60;6.65;;;30.00;51.20;;;;;;4176208;28;20198;-79
2022/08/15 10:57:11;;;;;;;6.97;5.97;;;30.10;53.40;;;;;;4171657;28;20225;-80
2022/08/15 10:59:16;;;;;;;9.13;6.70;;;30.20;53.20;;;;;;4170655;28;20218;-81
2022/08/15 11:01:21;;;;;;;7.65;6.53;;;30.30;52.40;;;;;;4171260;28;20297;-81
2022/08/15 11:03:32;;;;;;;6.85;6.15;;;30.30;52.00;;;;;;4156697;28;20203;-82
2022/08/15 11:05:34;;;;;;;7.25;6.55;;;30.40;50.60;;;;;;4150422;28;20219;-82
2022/08/15 11:07:40;;;;;;;7.07;6.20;;;30.50;47.10;;;;;;4173228;28;20213;-82
2022/08/15 11:09:41;;;;;;;7.60;6.80;;;30.70;47.10;;;;;;4172992;28;20286;-82